Time;durP1;ratioP1;P1;durP2;ratioP2;P2;SDS_P1;SDS_P2;PMS_P1;PMS_P2;Temp;Humidity;BMP_temperature;BMP_pressure;BME280_temperature;BME280_humidity;BME280_pressure;Samples;Min_cycle;Max_cycle;Signal;HPM_P1;HPM_P2
2023/03/06 00:02:10;;;;;;;26.45;16.35;;;;;;;-142.70;100.00;60390.16;4907249;29;20031;-77
2023/03/06 00:04:35;;;;;;;23.70;18.05;;;;;;;-142.70;100.00;60390.16;4925362;29;20039;-77
2023/03/06 00:07:02;;;;;;;25.60;18.75;;;;;;;-142.70;100.00;60390.16;4924785;29;20023;-77
2023/03/06 00:09:28;;;;;;;26.63;18.80;;;;;;;-142.70;100.00;60390.16;4888887;29;20032;-77
2023/03/06 00:11:53;;;;;;;25.08;16.67;;;;;;;-142.70;100.00;60390.16;4899106;29;20024;-77
2023/03/06 00:14:18;;;;;;;21.40;16.38;;;;;;;-142.70;100.00;60390.16;4907968;29;20148;-77
2023/03/06 00:16:44;;;;;;;25.80;18.17;;;;;;;-142.70;100.00;60390.16;4924655;29;20044;-77
2023/03/06 00:19:09;;;;;;;24.75;17.33;;;;;;;-142.70;100.00;60390.16;4924902;29;20040;-78
2023/03/06 00:21:35;;;;;;;21.95;16.25;;;;;;;-142.70;100.00;60390.16;4908029;29;20166;-77
2023/03/06 00:24:00;;;;;;;25.90;18.30;;;;;;;-142.70;100.00;60390.16;4925058;29;20131;-77
2023/03/06 00:26:25;;;;;;;24.98;17.38;;;;;;;-142.70;100.00;60390.16;4908144;29;20082;-78
2023/03/06 00:28:51;;;;;;;25.35;18.05;;;;;;;-142.70;100.00;60390.16;4891426;29;20098;-78
2023/03/06 00:31:16;;;;;;;22.88;16.55;;;;;;;-142.70;100.00;60390.16;4889551;29;20305;-77
2023/03/06 00:33:42;;;;;;;27.33;18.45;;;;;;;-142.70;100.00;60390.16;4924456;29;20086;-78
2023/03/06 00:36:08;;;;;;;27.45;17.52;;;;;;;-142.70;100.00;60390.16;4891897;29;20432;-77
2023/03/06 00:38:34;;;;;;;23.80;17.95;;;;;;;-142.70;100.00;60390.16;4907060;29;20019;-77
2023/03/06 00:41:06;;;;;;;26.25;19.30;;;;;;;-142.70;100.00;60390.16;4908033;29;20045;-77
2023/03/06 00:43:31;;;;;;;25.75;19.55;;;;;;;-142.70;100.00;60390.16;4907738;29;20040;-77
2023/03/06 00:45:57;;;;;;;25.73;18.83;;;;;;;-142.70;100.00;60390.16;4907007;29;20047;-78
2023/03/06 00:48:22;;;;;;;24.15;18.45;;;;;;;-142.70;100.00;60390.16;4924921;29;20465;-78
2023/03/06 00:50:48;;;;;;;25.80;18.90;;;;;;;-142.70;100.00;60390.16;4923849;29;20036;-77
2023/03/06 00:53:13;;;;;;;24.17;17.58;;;;;;;-142.70;100.00;60390.16;4907673;29;20027;-77
2023/03/06 00:55:39;;;;;;;28.85;18.23;;;;;;;-142.70;100.00;60390.16;4906384;29;20031;-77
2023/03/06 00:58:04;;;;;;;24.48;18.02;;;;;;;-142.70;100.00;60390.16;4924740;29;20032;-77
2023/03/06 01:00:29;;;;;;;32.10;19.35;;;;;;;-142.70;100.00;60390.16;4922673;29;20568;-77
2023/03/06 01:02:55;;;;;;;25.38;17.67;;;;;;;-142.70;100.00;60390.16;4907152;29;20708;-77
2023/03/06 01:05:20;;;;;;;29.27;19.38;;;;;;;-142.70;100.00;60390.16;4907087;29;20028;-77
2023/03/06 01:07:46;;;;;;;26.65;19.05;;;;;;;-142.70;100.00;60390.16;4906524;29;20028;-77
2023/03/06 01:10:11;;;;;;;26.85;18.30;;;;;;;-142.70;100.00;60390.16;4902586;29;20533;-77
2023/03/06 01:12:37;;;;;;;29.90;18.48;;;;;;;-142.70;100.00;60390.16;4897903;29;20027;-78
2023/03/06 01:15:04;;;;;;;27.42;19.13;;;;;;;-142.70;100.00;60390.16;4924420;29;20032;-77
2023/03/06 01:17:29;;;;;;;24.23;17.55;;;;;;;-142.70;100.00;60390.16;4906401;29;20833;-77
2023/03/06 01:19:56;;;;;;;31.23;19.70;;;;;;;-142.70;100.00;60390.16;4907272;29;20082;-77
2023/03/06 01:22:21;;;;;;;24.25;17.50;;;;;;;-142.70;100.00;60390.16;4907643;29;20027;-78
2023/03/06 01:24:48;;;;;;;25.73;16.80;;;;;;;-142.70;100.00;60390.16;4909039;29;20691;-79
2023/03/06 01:27:13;;;;;;;24.75;16.70;;;;;;;-142.70;100.00;60390.16;4926766;29;20614;-78
2023/03/06 01:29:39;;;;;;;23.70;16.23;;;;;;;-142.70;100.00;60390.16;4907280;29;20112;-78
2023/03/06 01:32:04;;;;;;;24.70;17.45;;;;;;;-142.70;100.00;60390.16;4889651;29;20486;-78
2023/03/06 01:34:30;;;;;;;27.92;17.70;;;;;;;-142.70;100.00;60390.16;4905984;29;20065;-78
2023/03/06 01:36:55;;;;;;;25.55;17.85;;;;;;;-142.70;100.00;60390.16;4926572;29;20036;-78
2023/03/06 01:39:20;;;;;;;23.02;15.70;;;;;;;-142.70;100.00;60390.16;4909834;29;20086;-78
2023/03/06 01:41:46;;;;;;;27.70;17.67;;;;;;;-142.70;100.00;60390.16;4910270;29;20032;-79
2023/03/06 01:44:12;;;;;;;25.63;18.67;;;;;;;-142.70;100.00;60390.16;4910794;29;20028;-79
2023/03/06 01:46:42;;;;;;;25.30;17.52;;;;;;;-142.70;100.00;60390.16;4910483;29;20028;-78
2023/03/06 01:49:11;;;;;;;25.83;17.05;;;;;;;-142.70;100.00;60390.16;4895002;29;20506;-79
2023/03/06 01:51:46;;;;;;;23.30;17.37;;;;;;;-142.70;100.00;60390.16;4905311;29;20040;-79
2023/03/06 01:54:17;;;;;;;29.55;17.70;;;;;;;-142.70;100.00;60390.16;4915337;29;20380;-79
2023/03/06 01:56:44;;;;;;;26.38;18.63;;;;;;;-142.70;100.00;60390.16;4911886;29;20086;-80
2023/03/06 01:59:10;;;;;;;31.70;18.67;;;;;;;-142.70;100.00;60390.16;4913128;29;20148;-79
2023/03/06 02:01:38;;;;;;;28.95;18.08;;;;;;;-142.70;100.00;60390.16;4911956;29;20103;-79
2023/03/06 02:04:04;;;;;;;26.65;18.83;;;;;;;-142.70;100.00;60390.16;4911491;29;20421;-79
2023/03/06 02:06:29;;;;;;;30.65;18.20;;;;;;;-142.70;100.00;60390.16;4880623;29;20692;-77
2023/03/06 02:08:55;;;;;;;24.17;18.25;;;;;;;-142.70;100.00;60390.16;4907833;29;20035;-79
2023/03/06 02:11:23;;;;;;;24.92;18.17;;;;;;;-142.70;100.00;60390.16;4910774;29;20039;-78
2023/03/06 02:13:50;;;;;;;22.92;16.02;;;;;;;-142.70;100.00;60390.16;4908366;29;20036;-78
2023/03/06 02:16:16;;;;;;;26.55;18.02;;;;;;;-142.70;100.00;60390.16;4910601;29;20839;-78
2023/03/06 02:18:43;;;;;;;23.60;16.50;;;;;;;-142.70;100.00;60390.16;4909607;29;20064;-78
2023/03/06 02:21:12;;;;;;;27.52;17.52;;;;;;;-142.70;100.00;60390.16;4909614;29;20110;-78
2023/03/06 02:23:50;;;;;;;25.03;16.77;;;;;;;-142.70;100.00;60390.16;4912281;29;20075;-79
2023/03/06 02:26:17;;;;;;;25.20;18.17;;;;;;;-142.70;100.00;60390.16;4927825;29;20366;-79
2023/03/06 02:28:42;;;;;;;25.70;17.20;;;;;;;-142.70;100.00;60390.16;4912421;29;20039;-79
2023/03/06 02:31:21;;;;;;;25.90;18.75;;;;;;;-142.70;100.00;60390.16;4892880;29;20019;-78
2023/03/06 02:34:03;;;;;;;29.77;18.35;;;;;;;-142.70;100.00;60390.16;4911806;29;20498;-79
2023/03/06 02:36:30;;;;;;;22.05;16.58;;;;;;;-142.70;100.00;60390.16;4911409;29;20055;-79
2023/03/06 02:38:56;;;;;;;26.83;18.05;;;;;;;-142.70;100.00;60390.16;4927747;29;20042;-79
2023/03/06 02:41:22;;;;;;;26.83;17.88;;;;;;;-142.70;100.00;60390.16;4912657;29;20355;-79
2023/03/06 02:43:48;;;;;;;30.17;18.27;;;;;;;-142.70;100.00;60390.16;4897805;29;20584;-78
2023/03/06 02:46:14;;;;;;;27.55;19.15;;;;;;;-142.70;100.00;60390.16;4912138;29;20071;-78
2023/03/06 02:48:39;;;;;;;27.75;15.93;;;;;;;-142.70;100.00;60390.16;4929136;29;20090;-78
2023/03/06 02:51:04;;;;;;;24.70;17.48;;;;;;;-142.70;100.00;60390.16;4930019;29;20032;-79
2023/03/06 02:53:30;;;;;;;29.75;19.77;;;;;;;-142.70;100.00;60390.16;4931105;29;20051;-78
2023/03/06 02:55:55;;;;;;;25.90;17.55;;;;;;;-142.70;100.00;60390.16;4898824;29;20020;-78
2023/03/06 02:58:21;;;;;;;22.92;17.70;;;;;;;-142.70;100.00;60390.16;4945222;29;20441;-79
2023/03/06 03:00:47;;;;;;;27.98;19.08;;;;;;;-142.70;100.00;60390.16;4928607;29;20103;-78
2023/03/06 03:03:13;;;;;;;27.92;18.70;;;;;;;-142.70;100.00;60390.16;4910655;29;20072;-78
2023/03/06 03:05:39;;;;;;;30.38;18.45;;;;;;;-142.70;100.00;60390.16;4909715;29;20463;-78
2023/03/06 03:08:04;;;;;;;22.58;16.90;;;;;;;-142.70;100.00;60390.16;4939169;29;20028;-78
2023/03/06 03:10:30;;;;;;;27.27;18.15;;;;;;;-142.70;100.00;60390.16;4932610;29;20042;-78
2023/03/06 03:12:56;;;;;;;24.15;16.95;;;;;;;-142.70;100.00;60390.16;4901717;29;20388;-78
2023/03/06 03:15:22;;;;;;;25.50;16.55;;;;;;;-142.70;100.00;60390.16;4908740;29;20171;-78
2023/03/06 03:17:47;;;;;;;25.35;17.27;;;;;;;-142.70;100.00;60390.16;4926471;29;20111;-77
2023/03/06 03:20:14;;;;;;;25.75;17.50;;;;;;;-142.70;100.00;60390.16;4908757;29;20032;-77
2023/03/06 03:22:40;;;;;;;25.38;17.05;;;;;;;-142.70;100.00;60390.16;4908980;29;20174;-78
2023/03/06 03:25:06;;;;;;;27.88;17.02;;;;;;;-142.70;100.00;60390.16;4894222;29;20130;-78
2023/03/06 03:27:32;;;;;;;24.40;16.77;;;;;;;-142.70;100.00;60390.16;4909947;29;20135;-77
2023/03/06 03:29:58;;;;;;;24.38;16.85;;;;;;;-142.70;100.00;60390.16;4929647;29;20110;-78
2023/03/06 03:32:24;;;;;;;24.50;16.35;;;;;;;-142.70;100.00;60390.16;4896919;29;20047;-79
2023/03/06 03:34:50;;;;;;;24.58;16.55;;;;;;;-142.70;100.00;60390.16;4913150;29;20494;-78
2023/03/06 03:37:16;;;;;;;26.02;16.33;;;;;;;-142.70;100.00;60390.16;4911811;29;20031;-78
2023/03/06 03:39:41;;;;;;;35.60;22.98;;;;;;;-142.70;100.00;60390.16;4909602;29;20082;-79
2023/03/06 03:42:07;;;;;;;37.03;21.75;;;;;;;-142.70;100.00;60390.16;4909979;29;20035;-78
2023/03/06 03:44:32;;;;;;;26.17;19.92;;;;;;;-142.70;100.00;60390.16;4926401;29;20028;-77
2023/03/06 03:46:57;;;;;;;29.38;20.58;;;;;;;-142.70;100.00;60390.16;4912876;29;20050;-78
2023/03/06 03:49:23;;;;;;;31.25;18.13;;;;;;;-142.70;100.00;60390.16;4931804;29;20043;-78
2023/03/06 03:51:49;;;;;;;28.08;17.85;;;;;;;-142.70;100.00;60390.16;4915496;29;20024;-78
2023/03/06 03:54:14;;;;;;;25.75;18.23;;;;;;;-142.70;100.00;60390.16;4914949;29;20596;-78
2023/03/06 03:56:40;;;;;;;25.13;17.80;;;;;;;-142.70;100.00;60390.16;4915116;29;20020;-78
2023/03/06 03:59:06;;;;;;;27.15;17.95;;;;;;;-142.70;100.00;60390.16;4915083;29;20042;-78
2023/03/06 04:01:31;;;;;;;25.95;16.65;;;;;;;-142.70;100.00;60390.16;4913285;29;20020;-78
2023/03/06 04:03:57;;;;;;;25.85;16.73;;;;;;;-142.70;100.00;60390.16;4930900;29;20031;-77
2023/03/06 04:06:22;;;;;;;25.13;17.27;;;;;;;-142.70;100.00;60390.16;4927857;29;20486;-77
2023/03/06 04:08:48;;;;;;;26.45;17.77;;;;;;;-142.70;100.00;60390.16;4929205;29;20023;-77
2023/03/06 04:11:13;;;;;;;28.83;16.65;;;;;;;-142.70;100.00;60390.16;4911277;29;20028;-77
2023/03/06 04:13:38;;;;;;;22.80;16.35;;;;;;;-142.70;100.00;60390.16;4934018;29;20037;-77
2023/03/06 04:16:04;;;;;;;25.13;16.85;;;;;;;-142.70;100.00;60390.16;4940656;29;20035;-78
2023/03/06 04:18:29;;;;;;;26.60;16.88;;;;;;;-142.70;100.00;60390.16;4914375;29;20422;-78
2023/03/06 04:20:55;;;;;;;26.23;17.10;;;;;;;-142.70;100.00;60390.16;4913166;29;20512;-78
2023/03/06 04:23:23;;;;;;;26.73;17.45;;;;;;;-142.70;100.00;60390.16;4913389;29;20024;-78
2023/03/06 04:25:48;;;;;;;22.58;16.38;;;;;;;-142.70;100.00;60390.16;4930908;29;20038;-78
2023/03/06 04:28:14;;;;;;;23.55;16.90;;;;;;;-142.70;100.00;60390.16;4912613;29;20020;-78
2023/03/06 04:30:39;;;;;;;29.02;17.55;;;;;;;-142.70;100.00;60390.16;4912440;29;20272;-77
2023/03/06 04:33:04;;;;;;;26.60;17.17;;;;;;;-142.70;100.00;60390.16;4911059;29;20390;-77
2023/03/06 04:35:30;;;;;;;27.73;18.23;;;;;;;-142.70;100.00;60390.16;4895665;29;20490;-77
2023/03/06 04:37:56;;;;;;;33.33;20.50;;;;;;;-142.70;100.00;60390.16;4912140;29;20421;-77
2023/03/06 04:40:27;;;;;;;24.88;18.83;;;;;;;-142.70;100.00;60390.16;4929536;29;20171;-78
2023/03/06 04:42:52;;;;;;;41.42;26.38;;;;;;;-142.70;100.00;60390.16;4930305;29;20047;-78
2023/03/06 04:45:18;;;;;;;33.33;20.42;;;;;;;-142.70;100.00;60390.16;4895315;29;20031;-77
2023/03/06 04:47:43;;;;;;;26.80;17.98;;;;;;;-142.70;100.00;60390.16;4912366;29;20043;-77
2023/03/06 04:50:10;;;;;;;32.83;20.33;;;;;;;-142.70;100.00;60390.16;4890537;29;20040;-77
2023/03/06 04:52:35;;;;;;;30.33;18.35;;;;;;;-142.70;100.00;60390.16;4911787;29;20394;-78
2023/03/06 04:55:03;;;;;;;34.08;19.38;;;;;;;-142.70;100.00;60390.16;4911279;29;20103;-78
2023/03/06 04:57:28;;;;;;;24.00;16.77;;;;;;;-142.70;100.00;60390.16;4896942;29;20046;-77
2023/03/06 04:59:54;;;;;;;25.83;18.15;;;;;;;-142.70;100.00;60390.16;4912238;29;20508;-78
2023/03/06 05:02:19;;;;;;;28.25;17.33;;;;;;;-142.70;100.00;60390.16;4910302;29;20740;-77
2023/03/06 05:04:45;;;;;;;27.13;17.27;;;;;;;-142.70;100.00;60390.16;4912705;29;20023;-77
2023/03/06 05:07:10;;;;;;;24.98;16.35;;;;;;;-142.70;100.00;60390.16;4911910;29;20777;-77
2023/03/06 05:09:35;;;;;;;24.48;16.45;;;;;;;-142.70;100.00;60390.16;4911502;29;20134;-77
2023/03/06 05:12:02;;;;;;;26.95;19.02;;;;;;;-142.70;100.00;60390.16;4914792;29;20033;-77
2023/03/06 05:14:31;;;;;;;23.85;17.52;;;;;;;-142.70;100.00;60390.16;4923256;29;20054;-78
2023/03/06 05:16:58;;;;;;;22.13;15.60;;;;;;;-142.70;100.00;60390.16;4911568;29;20062;-78
2023/03/06 05:19:23;;;;;;;23.08;16.60;;;;;;;-142.70;100.00;60390.16;4910755;29;20044;-78
2023/03/06 05:21:49;;;;;;;23.85;15.90;;;;;;;-142.70;100.00;60390.16;4929358;29;20027;-78
2023/03/06 05:24:14;;;;;;;58.28;29.67;;;;;;;-142.70;100.00;60390.16;4928853;29;20496;-78
2023/03/06 05:26:40;;;;;;;54.50;30.27;;;;;;;-142.70;100.00;60390.16;4909149;29;20027;-76
2023/03/06 05:29:05;;;;;;;21.90;15.35;;;;;;;-142.70;100.00;60390.16;4905782;29;20040;-76
2023/03/06 05:31:31;;;;;;;26.40;16.67;;;;;;;-142.70;100.00;60390.16;4924100;29;20043;-76
2023/03/06 05:33:57;;;;;;;29.00;18.25;;;;;;;-142.70;100.00;60390.16;4906580;29;20434;-77
2023/03/06 05:36:22;;;;;;;22.70;15.80;;;;;;;-142.70;100.00;60390.16;4908267;29;20576;-78
2023/03/06 05:38:48;;;;;;;20.88;16.73;;;;;;;-142.70;100.00;60390.16;4909584;29;20040;-78
2023/03/06 05:41:14;;;;;;;25.05;15.52;;;;;;;-142.70;100.00;60390.16;4912816;29;20027;-78
2023/03/06 05:43:40;;;;;;;19.42;15.02;;;;;;;-142.70;100.00;60390.16;4911654;29;20079;-78
2023/03/06 05:46:06;;;;;;;26.27;14.82;;;;;;;-142.70;100.00;60390.16;4909310;29;20035;-78
2023/03/06 05:48:32;;;;;;;23.55;16.48;;;;;;;-142.70;100.00;60390.16;4911374;29;20046;-79
2023/03/06 05:50:59;;;;;;;20.45;13.45;;;;;;;-142.70;100.00;60390.16;4910281;29;20027;-79
2023/03/06 05:53:25;;;;;;;19.90;14.68;;;;;;;-142.70;100.00;60390.16;4911795;29;20096;-79
2023/03/06 05:55:57;;;;;;;20.65;15.60;;;;;;;-142.70;100.00;60390.16;4913956;29;20019;-79
2023/03/06 05:58:23;;;;;;;19.42;12.23;;;;;;;-142.70;100.00;60390.16;4915356;29;20031;-79
2023/03/06 06:00:48;;;;;;;16.67;13.52;;;;;;;-142.70;100.00;60390.16;4909926;29;20032;-77
2023/03/06 06:03:13;;;;;;;19.65;14.85;;;;;;;-142.70;100.00;60390.16;4924170;29;20031;-77
2023/03/06 06:05:39;;;;;;;21.05;15.68;;;;;;;-142.70;100.00;60390.16;4923380;29;20039;-78
2023/03/06 06:08:04;;;;;;;18.95;16.08;;;;;;;-142.70;100.00;60390.16;4924079;29;20036;-77
2023/03/06 06:10:30;;;;;;;23.33;17.77;;;;;;;-142.70;100.00;60390.16;4908243;29;20577;-78
2023/03/06 06:12:55;;;;;;;17.63;14.68;;;;;;;-142.70;100.00;60390.16;4902920;29;20028;-79
2023/03/06 06:15:21;;;;;;;16.80;13.38;;;;;;;-142.70;100.00;60390.16;4902828;29;20079;-78
2023/03/06 06:17:46;;;;;;;16.65;11.65;;;;;;;-142.70;100.00;60390.16;4914123;29;20193;-78
2023/03/06 06:20:12;;;;;;;15.88;10.73;;;;;;;-142.70;100.00;60390.16;4916594;29;20498;-80
2023/03/06 06:22:37;;;;;;;15.50;11.90;;;;;;;-142.70;100.00;60390.16;4908875;29;20051;-82
2023/03/06 06:25:04;;;;;;;16.52;11.52;;;;;;;-142.70;100.00;60390.16;4926488;29;20043;-81
2023/03/06 06:27:29;;;;;;;13.65;12.00;;;;;;;-142.70;100.00;60390.16;4926262;29;20035;-83
2023/03/06 06:29:55;;;;;;;11.63;10.52;;;;;;;-142.70;100.00;60390.16;4893009;29;20034;-86
2023/03/06 06:32:20;;;;;;;11.02;9.93;;;;;;;-142.70;100.00;60390.16;4890249;29;20406;-84
2023/03/06 06:34:46;;;;;;;10.35;9.32;;;;;;;-142.70;100.00;60390.16;4921095;29;20105;-80
2023/03/06 06:37:11;;;;;;;11.07;9.98;;;;;;;-142.70;100.00;60390.16;4896290;29;20030;-80
2023/03/06 06:39:36;;;;;;;10.35;9.35;;;;;;;-142.70;100.00;60390.16;4907543;29;20513;-78
2023/03/06 06:42:02;;;;;;;11.15;10.15;;;;;;;-142.70;100.00;60390.16;4915272;29;20024;-80
2023/03/06 06:44:27;;;;;;;11.93;10.93;;;;;;;-142.70;100.00;60390.16;4906905;29;20055;-81
2023/03/06 06:46:53;;;;;;;12.15;11.10;;;;;;;-142.70;100.00;60390.16;4905506;29;20099;-81
2023/03/06 06:49:18;;;;;;;12.95;11.57;;;;;;;-142.70;100.00;60390.16;4884121;29;20470;-80
2023/03/06 06:51:43;;;;;;;59.05;13.70;;;;;;;-142.70;100.00;60390.16;4923624;29;20054;-77
2023/03/06 06:54:10;;;;;;;15.73;10.90;;;;;;;-142.70;100.00;60390.16;4910262;29;20052;-79
2023/03/06 06:56:36;;;;;;;19.42;11.88;;;;;;;-142.70;100.00;60390.16;4893680;29;20131;-79
2023/03/06 06:59:03;;;;;;;12.27;11.20;;;;;;;-142.70;100.00;60390.16;4907715;29;20511;-78
2023/03/06 07:01:29;;;;;;;12.43;11.27;;;;;;;-142.70;100.00;60390.16;4901616;29;20044;-78
2023/03/06 07:03:54;;;;;;;10.75;9.75;;;;;;;-142.70;100.00;60390.16;4910700;29;21565;-78
2023/03/06 07:06:20;;;;;;;9.73;8.88;;;;;;;-142.70;100.00;60390.16;4893062;29;20025;-78
2023/03/06 07:08:45;;;;;;;10.23;9.43;;;;;;;-142.70;100.00;60390.16;4893022;29;20028;-81
2023/03/06 07:11:13;;;;;;;10.07;9.00;;;;;;;-142.70;100.00;60390.16;4898994;29;20086;-75
2023/03/06 07:13:39;;;;;;;10.18;9.23;;;;;;;-142.70;100.00;60390.16;4904202;29;20034;-84
2023/03/06 07:16:05;;;;;;;10.75;9.73;;;;;;;-142.70;100.00;60390.16;4909277;29;20036;-90
2023/03/06 07:18:30;;;;;;;14.57;13.35;;;;;;;-142.70;100.00;60390.16;4900950;29;20040;-84
2023/03/06 07:20:56;;;;;;;8.48;7.78;;;;;;;-142.70;100.00;60390.16;4895230;29;20050;-84
2023/03/06 07:23:22;;;;;;;12.02;9.00;;;;;;;-142.70;100.00;60390.16;4897568;29;20187;-81
2023/03/06 07:25:48;;;;;;;9.98;9.18;;;;;;;-142.70;100.00;60390.16;4895388;29;20024;-82
2023/03/06 07:28:14;;;;;;;8.90;8.10;;;;;;;-142.70;100.00;60390.16;4884132;29;20089;-81
2023/03/06 07:30:40;;;;;;;12.38;8.35;;;;;;;-142.70;100.00;60390.16;4915153;29;20546;-80
2023/03/06 07:33:06;;;;;;;8.63;8.02;;;;;;;-142.70;100.00;60390.16;4898254;29;20043;-82
2023/03/06 07:35:32;;;;;;;8.95;8.25;;;;;;;-142.70;100.00;60390.16;4877589;29;20036;-81
2023/03/06 07:37:57;;;;;;;8.85;8.15;;;;;;;-142.70;100.00;60390.16;4897829;29;20051;-81
2023/03/06 07:40:23;;;;;;;9.00;8.40;;;;;;;-142.70;100.00;60390.16;4896860;29;20040;-81
2023/03/06 07:42:48;;;;;;;8.88;8.10;;;;;;;-142.70;100.00;60390.16;4889296;29;20036;-81
2023/03/06 07:45:14;;;;;;;8.85;8.15;;;;;;;-142.70;100.00;60390.16;4891938;29;20664;-81
2023/03/06 07:47:40;;;;;;;8.75;8.13;;;;;;;-142.70;100.00;60390.16;4897034;29;20059;-82
2023/03/06 07:50:06;;;;;;;8.85;8.05;;;;;;;-142.70;100.00;60390.16;4889259;29;20094;-83
2023/03/06 07:52:35;;;;;;;8.18;7.53;;;;;;;-142.70;100.00;60390.16;4905976;29;20083;-84
2023/03/06 07:55:00;;;;;;;8.50;7.70;;;;;;;-142.70;100.00;60390.16;4895963;29;20079;-86
2023/03/06 07:57:26;;;;;;;9.65;8.77;;;;;;;-142.70;100.00;60390.16;4881905;29;20147;-85
2023/03/06 07:59:51;;;;;;;9.25;8.35;;;;;;;-142.70;100.00;60390.16;4887454;29;20457;-89
2023/03/06 08:02:17;;;;;;;10.15;9.18;;;;;;;-142.70;100.00;60390.16;4888542;29;20032;-86
2023/03/06 08:04:42;;;;;;;9.50;8.35;;;;;;;-142.70;100.00;60390.16;4913934;29;20172;-86
2023/03/06 08:07:08;;;;;;;10.35;9.27;;;;;;;-142.70;100.00;60390.16;5152918;24;20112;-86
2023/03/06 08:09:34;;;;;;;10.45;9.30;;;;;;;-142.70;100.00;60390.16;4865455;29;20037;-84
2023/03/06 08:11:59;;;;;;;12.02;9.02;;;;;;;-142.70;100.00;60390.16;4898348;29;20411;-85
2023/03/06 08:14:25;;;;;;;10.93;9.30;;;;;;;-142.70;100.00;60390.16;4877068;29;20040;-86
2023/03/06 08:16:50;;;;;;;10.40;8.82;;;;;;;-142.70;100.00;60390.16;4865104;29;20487;-82
2023/03/06 08:21:47;;;;;;;10.05;8.98;;;;;;;-142.70;100.00;60390.16;4891417;29;20068;-81
2023/03/06 08:24:15;;;;;;;10.68;9.60;;;;;;;-142.70;100.00;60390.16;4886674;29;20032;-81
2023/03/06 08:26:41;;;;;;;11.23;9.20;;;;;;;-142.70;100.00;60390.16;4872471;29;20402;-84
2023/03/06 08:29:06;;;;;;;10.07;8.85;;;;;;;-142.70;100.00;60390.16;4875988;29;20040;-83
2023/03/06 08:31:41;;;;;;;9.48;8.57;;;;;;;-142.70;100.00;60390.16;4875855;29;20043;-80
2023/03/06 08:34:10;;;;;;;10.32;9.27;;;;;;;-142.70;100.00;60390.16;4865827;29;20499;-83
2023/03/06 08:36:35;;;;;;;10.20;9.20;;;;;;;-142.70;100.00;60390.16;4884865;29;20036;-83
2023/03/06 08:39:01;;;;;;;10.23;9.23;;;;;;;-142.70;100.00;60390.16;4870195;29;20043;-81
2023/03/06 08:41:27;;;;;;;12.30;10.02;;;;;;;-142.70;100.00;60390.16;4883659;29;20528;-84
2023/03/06 08:43:52;;;;;;;10.75;9.65;;;;;;;-142.70;100.00;60390.16;4888234;29;20115;-83
2023/03/06 08:46:20;;;;;;;11.27;9.73;;;;;;;-142.70;100.00;60390.16;4877386;29;20056;-81
2023/03/06 08:48:48;;;;;;;11.98;10.10;;;;;;;-142.70;100.00;60390.16;4898859;29;20089;-83
2023/03/06 08:51:14;;;;;;;11.45;10.25;;;;;;;-142.70;100.00;60390.16;4896788;29;20060;-81
2023/03/06 08:53:40;;;;;;;12.02;10.73;;;;;;;-142.70;100.00;60390.16;4900399;29;20095;-81
2023/03/06 08:56:06;;;;;;;12.32;10.68;;;;;;;-142.70;100.00;60390.16;4903882;29;20491;-85
2023/03/06 08:58:31;;;;;;;11.63;10.52;;;;;;;-142.70;100.00;60390.16;4899705;29;20051;-84
2023/03/06 09:00:57;;;;;;;10.85;9.73;;;;;;;-142.70;100.00;60390.16;4900488;29;20032;-84
2023/03/06 09:03:23;;;;;;;11.07;10.07;;;;;;;-142.70;100.00;60390.16;4883028;29;20526;-81
2023/03/06 09:05:49;;;;;;;13.65;10.25;;;;;;;-142.70;100.00;60390.16;4894545;29;20041;-85
2023/03/06 09:08:15;;;;;;;11.18;10.15;;;;;;;-142.70;100.00;60390.16;4887395;29;20061;-81
2023/03/06 09:10:45;;;;;;;13.35;10.25;;;;;;;-142.70;100.00;60390.16;4849500;29;20076;-84
2023/03/06 09:13:10;;;;;;;21.60;11.13;;;;;;;-142.70;100.00;60390.16;4846868;29;20983;-83
2023/03/06 09:15:36;;;;;;;14.15;11.10;;;;;;;-142.70;100.00;60390.16;4860947;29;20068;-86
2023/03/06 09:18:01;;;;;;;13.13;10.63;;;;;;;-142.70;100.00;60390.16;4893218;29;20038;-80
2023/03/06 09:20:27;;;;;;;11.18;10.07;;;;;;;-142.70;100.00;60390.16;4868891;29;20173;-82
2023/03/06 09:22:52;;;;;;;13.77;11.00;;;;;;;-142.70;100.00;60390.16;4877895;29;20427;-83
2023/03/06 09:25:20;;;;;;;13.57;11.32;;;;;;;-142.70;100.00;60390.16;4845464;29;20052;-81
2023/03/06 09:27:47;;;;;;;12.90;11.07;;;;;;;-142.70;100.00;60390.16;4846687;29;20032;-83
2023/03/06 09:30:13;;;;;;;13.30;11.32;;;;;;;-142.70;100.00;60390.16;4846821;29;20235;-79
2023/03/06 09:32:38;;;;;;;15.13;12.45;;;;;;;-142.70;100.00;60390.16;4865137;29;20165;-79
2023/03/06 09:35:04;;;;;;;12.27;11.00;;;;;;;-142.70;100.00;60390.16;5007797;23;20075;-86
2023/03/06 09:37:29;;;;;;;18.77;10.52;;;;;;;-142.70;100.00;60390.16;4931012;29;20121;-84
2023/03/06 09:39:56;;;;;;;12.45;11.25;;;;;;;-142.70;100.00;60390.16;4935912;29;20461;-85
2023/03/06 09:42:22;;;;;;;12.02;10.82;;;;;;;-142.70;100.00;60390.16;4924366;29;20027;-87
2023/03/06 09:44:59;;;;;;;12.82;11.52;;;;;;;-142.70;100.00;60390.16;4922475;29;20035;-85
2023/03/06 09:47:33;;;;;;;13.15;11.52;;;;;;;-142.70;100.00;60390.16;4929678;29;20608;-86
2023/03/06 09:50:17;;;;;;;11.80;10.57;;;;;;;-142.70;100.00;60390.16;4928857;29;20126;-85
2023/03/06 09:53:30;;;;;;;12.18;11.07;;;;;;;-142.70;100.00;60390.16;4930608;29;20522;-84
2023/03/06 09:56:05;;;;;;;15.63;12.18;;;;;;;-142.70;100.00;60390.16;4931166;29;20058;-84
2023/03/06 09:58:36;;;;;;;13.32;12.07;;;;;;;-142.70;100.00;60390.16;4942095;29;20070;-86
2023/03/06 10:01:26;;;;;;;12.35;11.30;;;;;;;-142.70;100.00;60390.16;4929377;29;20027;-84
2023/03/06 10:04:09;;;;;;;13.48;12.02;;;;;;;-142.70;100.00;60390.16;4929563;29;20046;-86
2023/03/06 10:06:49;;;;;;;14.07;12.32;;;;;;;-142.70;100.00;60390.16;4923117;29;20032;-85
2023/03/06 10:09:19;;;;;;;12.20;11.00;;;;;;;-142.70;100.00;60390.16;5439903;23;20225;-86
2023/03/06 10:11:53;;;;;;;14.15;12.48;;;;;;;-142.70;100.00;60390.16;4882997;29;20068;-84
2023/03/06 10:14:36;;;;;;;12.98;11.48;;;;;;;-142.70;100.00;60390.16;4881675;29;20024;-85
2023/03/06 10:17:01;;;;;;;12.85;11.57;;;;;;;-142.70;100.00;60390.16;4888641;29;20068;-85
2023/03/06 10:19:33;;;;;;;13.35;12.07;;;;;;;-142.70;100.00;60390.16;4868212;29;20118;-84
2023/03/06 10:22:19;;;;;;;13.48;11.52;;;;;;;-142.70;100.00;60390.16;4884347;29;20039;-85
2023/03/06 10:25:02;;;;;;;15.02;12.60;;;;;;;-142.70;100.00;60390.16;4880420;29;20116;-84
2023/03/06 10:27:30;;;;;;;13.93;12.48;;;;;;;-142.70;100.00;60390.16;4902855;29;20107;-86
2023/03/06 10:32:56;;;;;;;13.32;11.93;;;;;;;-142.70;100.00;60390.16;5074197;23;20122;-89
2023/03/06 10:35:27;;;;;;;16.60;12.32;;;;;;;-142.70;100.00;60390.16;4908135;29;20506;-89
2023/03/06 10:38:14;;;;;;;13.55;12.18;;;;;;;-142.70;100.00;60390.16;4909226;29;20059;-88
2023/03/06 10:41:07;;;;;;;14.18;12.57;;;;;;;-142.70;100.00;60390.16;4892051;29;20035;-87
2023/03/06 10:43:34;;;;;;;12.70;11.40;;;;;;;-142.70;100.00;60390.16;4927217;29;20534;-85
2023/03/06 10:46:00;;;;;;;15.20;12.13;;;;;;;-142.70;100.00;60390.16;4926786;29;20036;-85
2023/03/06 10:48:28;;;;;;;14.25;12.95;;;;;;;-142.70;100.00;60390.16;4940677;28;20540;-87
2023/03/06 10:51:18;;;;;;;13.38;12.07;;;;;;;-142.70;100.00;60390.16;4912209;29;20057;-86
2023/03/06 10:54:12;;;;;;;12.05;10.20;;;;;;;-142.70;100.00;60390.16;4928454;29;20075;-87
2023/03/06 10:56:40;;;;;;;14.23;11.32;;;;;;;-142.70;100.00;60390.16;4925263;29;20035;-87
2023/03/06 10:59:18;;;;;;;15.60;12.88;;;;;;;-142.70;100.00;60390.16;4909721;29;20028;-86
2023/03/06 11:01:49;;;;;;;14.63;13.13;;;;;;;-142.70;100.00;60390.16;4931583;28;20035;-88
2023/03/06 11:07:14;;;;;;;14.13;12.15;;;;;;;-142.70;100.00;60390.16;4978011;23;20121;-86